createdAt,value
2024-04-22T00:02:16.817Z,1.30
2024-04-22T00:04:43.872Z,1.80
2024-04-22T00:07:12.742Z,0.90
2024-04-22T00:09:40.268Z,1.57
2024-04-22T00:12:07.936Z,0.90
2024-04-22T00:14:35.009Z,1.83
2024-04-22T00:17:03.463Z,2.40
2024-04-22T00:19:30.632Z,1.63
2024-04-22T00:21:57.740Z,1.27
2024-04-22T00:24:24.863Z,1.13
2024-04-22T00:26:51.929Z,0.67
2024-04-22T00:29:19.044Z,1.37
2024-04-22T00:31:46.136Z,1.00
2024-04-22T00:34:13.412Z,1.10
2024-04-22T00:36:40.556Z,1.07
2024-04-22T00:39:07.569Z,1.70
2024-04-22T00:41:36.573Z,1.60
2024-04-22T00:44:03.877Z,2.80
2024-04-22T00:46:31.089Z,1.30
2024-04-22T00:48:58.509Z,1.47
2024-04-22T00:51:26.323Z,1.30
2024-04-22T00:53:54.788Z,1.13
2024-04-22T00:56:21.958Z,0.50
2024-04-22T00:58:50.163Z,1.30
2024-04-22T01:01:18.816Z,2.23
2024-04-22T01:03:46.416Z,1.73
2024-04-22T01:06:13.549Z,2.50
2024-04-22T01:08:40.588Z,1.40
2024-04-22T01:11:07.803Z,2.47
2024-04-22T01:13:35.040Z,1.50
2024-04-22T01:16:02.201Z,2.40
2024-04-22T01:18:29.270Z,1.40
2024-04-22T01:20:57.762Z,1.57
2024-04-22T01:23:24.803Z,1.30
2024-04-22T01:25:56.907Z,1.87
2024-04-22T01:28:24.143Z,1.20
2024-04-22T01:30:51.524Z,1.50
2024-04-22T01:33:18.734Z,1.57
2024-04-22T01:35:45.947Z,1.10
2024-04-22T01:38:13.575Z,1.70
2024-04-22T01:40:40.761Z,1.60
2024-04-22T01:43:07.865Z,0.80
2024-04-22T01:45:35.047Z,0.90
2024-04-22T01:48:02.199Z,1.10
2024-04-22T01:50:29.295Z,1.50
2024-04-22T01:52:56.815Z,1.33
2024-04-22T01:55:24.934Z,1.73
2024-04-22T01:57:52.114Z,1.30
2024-04-22T02:00:19.356Z,1.43
2024-04-22T02:02:46.443Z,1.23
2024-04-22T02:05:13.638Z,0.80
2024-04-22T02:07:40.753Z,1.30
2024-04-22T02:10:17.580Z,0.77
2024-04-22T02:12:50.531Z,1.10
2024-04-22T02:15:17.581Z,1.23
2024-04-22T02:17:44.768Z,1.00
2024-04-22T02:20:11.892Z,1.40
2024-04-22T02:22:39.189Z,1.13
2024-04-22T02:25:06.461Z,1.63
2024-04-22T02:27:33.583Z,1.53
2024-04-22T02:30:00.684Z,1.83
2024-04-22T02:32:30.984Z,2.03
2024-04-22T02:34:58.313Z,1.37
2024-04-22T02:37:25.450Z,1.90
2024-04-22T02:39:52.603Z,1.40
2024-04-22T02:42:19.627Z,1.30
2024-04-22T02:44:46.771Z,1.13
2024-04-22T02:47:13.841Z,1.13
2024-04-22T02:49:41.096Z,1.67
2024-04-22T02:52:08.410Z,0.97
2024-04-22T02:54:35.696Z,1.27
2024-04-22T02:57:02.777Z,1.50
2024-04-22T02:59:30.758Z,1.90
2024-04-22T03:01:57.902Z,1.30
2024-04-22T03:04:25.014Z,1.20
2024-04-22T03:06:52.039Z,1.33
2024-04-22T03:09:19.108Z,1.53
2024-04-22T03:11:47.500Z,1.70
2024-04-22T03:14:14.691Z,1.33
2024-04-22T03:16:41.966Z,1.60
2024-04-22T03:19:09.157Z,2.03
2024-04-22T03:21:36.543Z,1.57
2024-04-22T03:24:04.554Z,1.10
2024-04-22T03:26:31.709Z,1.90
2024-04-22T03:28:59.017Z,1.80
2024-04-22T03:31:26.361Z,1.70
2024-04-22T03:33:53.506Z,2.03
2024-04-22T03:36:20.561Z,1.03
2024-04-22T03:38:47.781Z,1.57
2024-04-22T03:41:15.245Z,1.80
2024-04-22T03:43:42.394Z,2.10
2024-04-22T03:46:27.826Z,1.47
2024-04-22T03:49:13.704Z,1.20
2024-04-22T03:51:41.068Z,1.43
2024-04-22T03:54:08.281Z,2.40
2024-04-22T03:56:35.427Z,2.00
2024-04-22T03:59:02.507Z,2.07
2024-04-22T04:01:29.669Z,2.17
2024-04-22T04:03:58.457Z,2.10
2024-04-22T04:06:25.657Z,2.50
2024-04-22T04:08:52.637Z,1.90
2024-04-22T04:11:24.583Z,1.70
2024-04-22T04:13:51.629Z,2.07
2024-04-22T04:16:18.791Z,3.03
2024-04-22T04:18:47.387Z,2.80
2024-04-22T04:21:14.465Z,1.90
2024-04-22T04:23:41.501Z,3.07
2024-04-22T04:26:08.598Z,2.47
2024-04-22T04:28:35.813Z,2.40
2024-04-22T04:31:03.058Z,2.37
2024-04-22T04:33:30.071Z,2.60
2024-04-22T04:36:04.473Z,1.70
2024-04-22T04:38:36.419Z,2.37
2024-04-22T04:41:04.431Z,2.17
2024-04-22T04:43:32.507Z,2.53
2024-04-22T04:45:59.996Z,3.60
2024-04-22T04:48:27.454Z,2.33
2024-04-22T04:50:54.816Z,2.57
2024-04-22T04:53:22.954Z,2.30
2024-04-22T04:55:50.545Z,2.60
2024-04-22T04:58:18.975Z,2.03
2024-04-22T05:00:46.750Z,1.97
2024-04-22T05:03:13.931Z,2.30
2024-04-22T05:05:41.531Z,1.77
2024-04-22T05:08:08.682Z,2.00
2024-04-22T05:10:36.160Z,2.17
2024-04-22T05:13:03.339Z,1.47
2024-04-22T05:15:30.400Z,1.70
2024-04-22T05:17:57.574Z,1.90
2024-04-22T05:20:24.684Z,1.80
2024-04-22T05:22:51.783Z,3.20
2024-04-22T05:25:18.881Z,4.83
2024-04-22T05:27:46.098Z,4.03
2024-04-22T05:30:13.448Z,5.07
2024-04-22T05:32:40.823Z,4.07
2024-04-22T05:35:26.478Z,4.13
2024-04-22T05:37:53.573Z,4.03
2024-04-22T05:40:20.933Z,4.60
2024-04-22T05:42:48.099Z,5.13
2024-04-22T05:45:15.451Z,5.13
2024-04-22T05:47:42.607Z,4.73
2024-04-22T05:50:09.723Z,4.70
2024-04-22T05:52:36.933Z,5.03
2024-04-22T05:55:05.685Z,4.57
2024-04-22T05:57:32.809Z,5.13
2024-04-22T05:59:59.955Z,4.30
2024-04-22T06:02:27.250Z,4.20
2024-04-22T06:04:54.692Z,4.30
2024-04-22T06:07:22.704Z,4.63
2024-04-22T06:09:49.810Z,4.47
2024-04-22T06:12:19.714Z,4.10
2024-04-22T06:14:47.560Z,4.27
2024-04-22T06:17:14.863Z,4.83
2024-04-22T06:19:42.306Z,3.87
2024-04-22T06:22:09.820Z,4.67
2024-04-22T06:24:36.889Z,5.10
2024-04-22T06:27:04.429Z,4.77
2024-04-22T06:29:31.553Z,3.73
2024-04-22T06:31:58.878Z,4.17
2024-04-22T06:34:26.121Z,3.10
2024-04-22T06:36:53.347Z,3.30
2024-04-22T06:39:22.216Z,3.77
2024-04-22T06:41:49.353Z,3.37
2024-04-22T06:44:16.482Z,3.10
2024-04-22T06:46:43.637Z,3.50
2024-04-22T06:49:10.915Z,4.70
2024-04-22T06:51:38.034Z,2.50
2024-04-22T06:54:05.716Z,3.30
2024-04-22T06:56:32.819Z,3.17
2024-04-22T06:58:59.969Z,2.73
2024-04-22T07:01:35.015Z,2.77
2024-04-22T07:04:07.125Z,2.77
2024-04-22T07:06:34.338Z,3.40
2024-04-22T07:09:11.244Z,4.10
2024-04-22T07:11:38.901Z,4.20
2024-04-22T07:14:10.489Z,2.73
2024-04-22T07:16:41.049Z,2.00
2024-04-22T07:19:08.279Z,1.90
2024-04-22T07:21:35.325Z,3.47
2024-04-22T07:24:02.629Z,1.90
2024-04-22T07:26:29.793Z,2.37
2024-04-22T07:28:57.201Z,2.37
2024-04-22T07:31:24.719Z,2.43
2024-04-22T07:33:52.175Z,1.73
2024-04-22T07:36:27.081Z,2.03
2024-04-22T07:38:55.499Z,2.07
2024-04-22T07:41:23.014Z,2.10
2024-04-22T07:43:50.202Z,4.10
2024-04-22T07:46:17.455Z,2.30
2024-04-22T07:48:44.620Z,2.23
2024-04-22T07:51:11.896Z,2.17
2024-04-22T07:53:39.326Z,2.90
2024-04-22T07:56:16.541Z,1.90
2024-04-22T07:58:45.172Z,2.17
2024-04-22T08:01:16.111Z,1.23
2024-04-22T08:03:43.839Z,2.70
2024-04-22T08:06:13.672Z,3.53
2024-04-22T08:08:41.049Z,2.10
2024-04-22T08:11:08.496Z,2.33
2024-04-22T08:13:35.815Z,2.50
2024-04-22T08:16:03.015Z,2.77
2024-04-22T08:18:30.881Z,2.93
2024-04-22T08:20:57.990Z,2.37
2024-04-22T08:23:25.652Z,2.00
2024-04-22T08:25:54.304Z,2.23
2024-04-22T08:28:21.398Z,3.33
2024-04-22T08:30:48.531Z,2.80
2024-04-22T08:33:15.667Z,2.20
2024-04-22T08:35:49.333Z,2.60
2024-04-22T08:38:16.380Z,3.00
2024-04-22T08:40:45.341Z,2.63
2024-04-22T08:43:15.740Z,2.70
2024-04-22T08:45:46.821Z,2.30
2024-04-22T08:48:14.028Z,2.30
2024-04-22T08:50:42.060Z,2.00
2024-04-22T08:53:10.477Z,2.27
2024-04-22T08:55:38.590Z,2.17
2024-04-22T08:58:06.946Z,1.67
2024-04-22T09:00:34.201Z,2.83
2024-04-22T09:03:02.016Z,2.50
2024-04-22T09:05:29.892Z,2.43
2024-04-22T09:08:05.272Z,2.43
2024-04-22T09:11:05.636Z,1.67
2024-04-22T09:13:21.229Z,1.70
2024-04-22T09:15:55.146Z,1.43
2024-04-22T09:18:25.705Z,1.70
2024-04-22T09:20:54.966Z,1.60
2024-04-22T09:23:22.649Z,1.60
2024-04-22T09:25:49.882Z,1.73
2024-04-22T09:28:20.889Z,1.73
2024-04-22T09:30:53.304Z,1.80
2024-04-22T09:33:24.930Z,1.73
2024-04-22T09:35:53.408Z,2.60
2024-04-22T09:38:31.348Z,1.60
2024-04-22T09:41:07.602Z,1.60
2024-04-22T09:43:39.153Z,1.97
2024-04-22T09:46:07.261Z,2.00
2024-04-22T09:48:35.549Z,1.80
2024-04-22T09:51:04.109Z,1.40
2024-04-22T09:53:31.893Z,1.70
2024-04-22T09:56:04.143Z,1.50
2024-04-22T09:58:33.321Z,1.37
2024-04-22T10:01:00.646Z,1.80
2024-04-22T10:03:28.906Z,2.13
2024-04-22T10:05:59.842Z,1.57
2024-04-22T10:08:29.613Z,1.97
2024-04-22T10:11:10.653Z,1.30
2024-04-22T10:13:38.564Z,1.77
2024-04-22T10:16:06.648Z,1.50
2024-04-22T10:18:34.489Z,1.10
2024-04-22T10:21:05.275Z,1.90
2024-04-22T10:23:35.407Z,1.40
2024-04-22T10:26:02.691Z,2.00
2024-04-22T10:28:29.770Z,1.43
2024-04-22T10:30:58.229Z,1.40
2024-04-22T10:33:25.404Z,1.30
2024-04-22T10:35:52.532Z,1.63
2024-04-22T10:38:19.613Z,1.60
2024-04-22T10:40:46.876Z,1.43
2024-04-22T10:43:14.167Z,1.90
2024-04-22T10:45:41.467Z,1.73
2024-04-22T10:48:15.453Z,1.30
2024-04-22T10:50:48.157Z,1.50
2024-04-22T10:53:15.369Z,1.70
2024-04-22T10:55:42.634Z,2.33
2024-04-22T10:58:10.989Z,1.23
2024-04-22T11:00:39.147Z,1.80
2024-04-22T11:03:06.661Z,1.90
2024-04-22T11:05:35.080Z,1.50
2024-04-22T11:08:03.496Z,1.30
2024-04-22T11:10:37.526Z,1.20
2024-04-22T11:13:10.092Z,1.33
2024-04-22T11:15:37.360Z,1.47
2024-04-22T11:18:08.816Z,1.40
2024-04-22T11:20:37.463Z,1.57
2024-04-22T11:23:05.912Z,1.60
2024-04-22T11:25:33.441Z,1.20
2024-04-22T11:28:01.581Z,1.20
2024-04-22T11:30:29.720Z,1.00
2024-04-22T11:32:57.380Z,1.23
2024-04-22T11:35:24.705Z,1.30
2024-04-22T11:37:55.100Z,1.50
2024-04-22T11:40:22.400Z,1.30
2024-04-22T11:42:49.564Z,1.40
2024-04-22T11:45:16.776Z,1.50
2024-04-22T11:47:44.054Z,2.00
2024-04-22T11:50:11.212Z,1.03
2024-04-22T11:52:39.043Z,1.50
2024-04-22T11:55:06.553Z,1.40
2024-04-22T11:57:33.667Z,1.43
2024-04-22T12:00:00.816Z,1.23
2024-04-22T12:02:27.898Z,1.37
2024-04-22T12:04:55.968Z,1.07
2024-04-22T12:07:23.312Z,1.77
2024-04-22T12:09:50.439Z,1.47
2024-04-22T12:12:17.578Z,1.57
2024-04-22T12:14:44.777Z,1.83
2024-04-22T12:17:13.001Z,0.90
2024-04-22T12:19:40.156Z,1.97
2024-04-22T12:22:07.283Z,1.40
2024-04-22T12:24:34.471Z,1.53
2024-04-22T12:27:03.181Z,3.00
2024-04-22T12:29:32.124Z,1.80
2024-04-22T12:31:59.949Z,2.43
2024-04-22T12:34:27.137Z,1.87
2024-04-22T12:36:54.478Z,1.10
2024-04-22T12:39:21.460Z,2.00
2024-04-22T12:41:48.554Z,1.50
2024-04-22T12:44:15.598Z,1.47
2024-04-22T12:47:03.041Z,1.20
2024-04-22T12:49:51.976Z,1.90
2024-04-22T12:52:21.929Z,1.43
2024-04-22T12:54:49.142Z,1.60
2024-04-22T12:57:16.328Z,1.97
2024-04-22T12:59:43.400Z,1.10
2024-04-22T13:02:13.219Z,1.40
2024-04-22T13:04:40.637Z,1.13
2024-04-22T13:07:07.807Z,1.53
2024-04-22T13:09:36.796Z,1.67
2024-04-22T13:12:04.488Z,1.13
2024-04-22T13:14:31.575Z,1.87
2024-04-22T13:16:58.724Z,1.60
2024-04-22T13:19:26.064Z,1.83
2024-04-22T13:21:53.573Z,1.40
2024-04-22T13:24:21.200Z,0.87
2024-04-22T13:26:48.860Z,1.30
2024-04-22T13:29:15.952Z,1.47
2024-04-22T13:31:47.344Z,1.87
2024-04-22T13:34:19.104Z,1.50
2024-04-22T13:36:46.371Z,1.53
2024-04-22T13:39:13.588Z,1.37
2024-04-22T13:41:40.780Z,1.30
2024-04-22T13:44:07.886Z,1.43
2024-04-22T13:46:35.833Z,1.20
2024-04-22T13:49:03.004Z,1.33
2024-04-22T13:51:30.261Z,1.63
2024-04-22T13:53:57.414Z,1.77
2024-04-22T13:56:24.408Z,1.73
2024-04-22T13:58:51.519Z,1.43
2024-04-22T14:01:18.661Z,1.70
2024-04-22T14:03:48.260Z,1.70
2024-04-22T14:06:15.323Z,2.20
2024-04-22T14:08:42.559Z,1.63
2024-04-22T14:11:13.023Z,1.67
2024-04-22T14:13:40.276Z,1.70
2024-04-22T14:16:07.759Z,1.43
2024-04-22T14:18:34.901Z,1.83
2024-04-22T14:21:02.177Z,1.27
2024-04-22T14:23:29.312Z,1.57
2024-04-22T14:25:56.579Z,2.00
2024-04-22T14:28:25.700Z,1.67
2024-04-22T14:30:52.759Z,1.50
2024-04-22T14:33:23.417Z,1.30
2024-04-22T14:35:51.407Z,1.70
2024-04-22T14:38:18.611Z,1.87
2024-04-22T14:40:45.798Z,1.43
2024-04-22T14:43:13.045Z,1.43
2024-04-22T14:45:41.142Z,1.63
2024-04-22T14:48:08.876Z,1.93
2024-04-22T14:50:36.091Z,3.23
2024-04-22T14:53:07.072Z,2.17
2024-04-22T14:55:38.716Z,1.83
2024-04-22T14:58:05.913Z,2.20
2024-04-22T15:00:33.045Z,1.63
2024-04-22T15:03:02.009Z,1.57
2024-04-22T15:05:32.492Z,4.00
2024-04-22T15:07:59.749Z,2.33
2024-04-22T15:10:26.917Z,3.10
2024-04-22T15:12:54.121Z,2.27
2024-04-22T15:15:21.259Z,2.27
2024-04-22T15:17:48.637Z,1.50
2024-04-22T15:20:15.850Z,1.77
2024-04-22T15:22:42.977Z,1.97
2024-04-22T15:25:10.128Z,1.83
2024-04-22T15:27:37.169Z,1.70
2024-04-22T15:30:04.762Z,2.20
2024-04-22T15:32:32.011Z,1.57
2024-04-22T15:34:59.169Z,1.70
2024-04-22T15:37:26.305Z,2.43
2024-04-22T15:39:53.349Z,2.20
2024-04-22T15:42:20.524Z,1.97
2024-04-22T15:44:47.751Z,2.90
2024-04-22T15:47:14.894Z,3.43
2024-04-22T15:49:42.068Z,3.23
2024-04-22T15:52:09.251Z,2.47
2024-04-22T15:54:36.559Z,2.67
2024-04-22T15:57:03.768Z,2.37
2024-04-22T15:59:30.889Z,2.70
2024-04-22T16:01:58.054Z,2.77
2024-04-22T16:04:25.316Z,3.10
2024-04-22T16:06:52.428Z,2.73
2024-04-22T16:09:19.565Z,3.47
2024-04-22T16:11:46.725Z,23.30
2024-04-22T16:14:16.077Z,13.37
2024-04-22T16:16:43.272Z,11.67
2024-04-22T16:19:11.069Z,7.33
2024-04-22T16:21:38.215Z,3.93
2024-04-22T16:24:05.536Z,2.50
2024-04-22T16:26:32.628Z,4.00
2024-04-22T16:29:00.977Z,4.37
2024-04-22T16:31:28.202Z,3.37
2024-04-22T16:33:55.423Z,3.23
2024-04-22T16:36:22.566Z,2.40
2024-04-22T16:38:49.666Z,2.30
2024-04-22T16:41:16.838Z,3.50
2024-04-22T16:43:44.003Z,3.33
2024-04-22T16:46:11.238Z,4.30
2024-04-22T16:48:40.266Z,3.97
2024-04-22T16:51:07.601Z,4.30
2024-04-22T16:53:34.740Z,3.60
2024-04-22T16:56:01.956Z,3.50
2024-04-22T16:58:32.889Z,3.50
2024-04-22T17:01:00.325Z,4.10
2024-04-22T17:03:30.235Z,4.17
2024-04-22T17:05:57.770Z,4.00
2024-04-22T17:08:24.895Z,3.27
2024-04-22T17:10:52.029Z,3.80
2024-04-22T17:13:19.346Z,2.90
2024-04-22T17:15:46.775Z,3.57
2024-04-22T17:18:14.129Z,2.70
2024-04-22T17:20:41.280Z,5.10
2024-04-22T17:23:18.407Z,4.63
2024-04-22T17:25:45.725Z,5.00
2024-04-22T17:28:13.019Z,4.67
2024-04-22T17:30:40.159Z,10.70
2024-04-22T17:33:07.452Z,4.00
2024-04-22T17:35:34.662Z,4.07
2024-04-22T17:38:01.795Z,3.77
2024-04-22T17:40:28.903Z,4.77
2024-04-22T17:42:56.050Z,3.70
2024-04-22T17:45:23.373Z,3.97
2024-04-22T17:47:50.582Z,4.80
2024-04-22T17:50:17.708Z,4.83
2024-04-22T17:52:44.910Z,3.90
2024-04-22T17:55:12.149Z,4.63
2024-04-22T17:57:40.890Z,4.37
2024-04-22T18:00:09.283Z,3.10
2024-04-22T18:02:36.466Z,3.93
2024-04-22T18:05:03.850Z,3.80
2024-04-22T18:07:31.029Z,4.10
2024-04-22T18:09:58.154Z,3.80
2024-04-22T18:12:25.379Z,3.63
2024-04-22T18:14:52.537Z,3.40
2024-04-22T18:17:19.922Z,6.73
2024-04-22T18:19:47.094Z,3.70
2024-04-22T18:22:17.740Z,4.27
2024-04-22T18:24:48.702Z,3.63
2024-04-22T18:27:15.968Z,3.90
2024-04-22T18:29:43.105Z,3.30
2024-04-22T18:32:10.351Z,3.20
2024-04-22T18:34:38.390Z,3.90
2024-04-22T18:37:05.681Z,4.50
2024-04-22T18:39:33.084Z,4.90
2024-04-22T18:42:00.349Z,4.07
2024-04-22T18:44:27.689Z,5.13
2024-04-22T18:46:54.967Z,3.80
2024-04-22T18:49:22.234Z,5.60
2024-04-22T18:51:49.442Z,9.57
2024-04-22T18:54:16.735Z,5.10
2024-04-22T18:56:43.825Z,4.20
2024-04-22T18:59:11.098Z,4.33
2024-04-22T19:01:38.321Z,4.33
2024-04-22T19:04:05.819Z,4.10
2024-04-22T19:06:32.977Z,4.07
2024-04-22T19:09:00.122Z,2.83
2024-04-22T19:11:27.957Z,3.43
2024-04-22T19:13:56.262Z,3.03
2024-04-22T19:16:23.445Z,3.40
2024-04-22T19:18:50.609Z,3.37
2024-04-22T19:21:17.711Z,3.03
2024-04-22T19:23:44.853Z,3.00
2024-04-22T19:26:12.478Z,3.57
2024-04-22T19:28:39.757Z,3.27
2024-04-22T19:31:07.850Z,3.20
2024-04-22T19:33:35.114Z,2.90
2024-04-22T19:36:02.499Z,3.00
2024-04-22T19:38:29.630Z,3.63
2024-04-22T19:40:56.783Z,3.10
2024-04-22T19:43:24.625Z,3.60
2024-04-22T19:45:51.791Z,3.60
2024-04-22T19:48:19.127Z,4.10
2024-04-22T19:50:47.093Z,4.30
2024-04-22T19:53:14.936Z,4.30
2024-04-22T19:55:43.902Z,4.40
2024-04-22T19:58:11.713Z,4.57
2024-04-22T20:00:38.885Z,3.47
2024-04-22T20:03:06.498Z,3.83
2024-04-22T20:05:33.950Z,5.30
2024-04-22T20:08:01.252Z,3.50
2024-04-22T20:10:28.425Z,4.03
2024-04-22T20:12:55.631Z,3.37
2024-04-22T20:15:41.378Z,3.40
2024-04-22T20:18:14.617Z,3.03
2024-04-22T20:20:42.198Z,5.00
2024-04-22T20:23:09.414Z,3.93
2024-04-22T20:25:36.854Z,3.37
2024-04-22T20:28:04.094Z,3.87
2024-04-22T20:30:31.275Z,3.30
2024-04-22T20:32:58.598Z,3.67
2024-04-22T20:35:25.800Z,4.43
2024-04-22T20:37:54.799Z,3.17
2024-04-22T20:40:22.077Z,4.00
2024-04-22T20:42:49.119Z,4.20
2024-04-22T20:45:16.333Z,3.33
2024-04-22T20:47:43.491Z,3.20
2024-04-22T20:50:10.698Z,3.80
2024-04-22T20:52:38.282Z,4.23
2024-04-22T20:55:06.542Z,4.20
2024-04-22T20:57:33.899Z,3.13
2024-04-22T21:00:01.220Z,3.60
2024-04-22T21:02:28.377Z,3.90
2024-04-22T21:04:55.499Z,4.10
2024-04-22T21:07:22.692Z,4.10
2024-04-22T21:09:49.842Z,4.50
2024-04-22T21:12:18.037Z,4.90
2024-04-22T21:14:45.120Z,4.70
2024-04-22T21:17:12.394Z,4.47
2024-04-22T21:19:39.492Z,4.60
2024-04-22T21:22:06.759Z,4.50
2024-04-22T21:24:33.914Z,3.50
2024-04-22T21:27:01.104Z,4.53
2024-04-22T21:29:28.204Z,3.77
2024-04-22T21:31:55.438Z,3.20
2024-04-22T21:34:22.762Z,3.87
2024-04-22T21:36:50.246Z,4.40
2024-04-22T21:39:17.468Z,4.43
2024-04-22T21:41:44.674Z,4.60
2024-04-22T21:44:12.887Z,4.30
2024-04-22T21:46:40.152Z,4.90
2024-04-22T21:49:07.204Z,4.37
2024-04-22T21:51:34.349Z,4.60
2024-04-22T21:54:01.454Z,4.53
2024-04-22T21:56:28.395Z,5.27
2024-04-22T21:59:33.701Z,4.70
2024-04-22T22:02:38.573Z,4.10
2024-04-22T22:05:43.510Z,5.43
2024-04-22T22:08:10.719Z,3.93
2024-04-22T22:10:40.217Z,5.07
2024-04-22T22:13:08.057Z,3.73
2024-04-22T22:15:35.255Z,5.80
2024-04-22T22:18:02.751Z,4.03
2024-04-22T22:20:30.115Z,5.00
2024-04-22T22:22:57.526Z,5.40
2024-04-22T22:25:26.944Z,4.53
2024-04-22T22:27:54.214Z,5.37
2024-04-22T22:30:21.324Z,4.50
2024-04-22T22:32:48.536Z,5.00
2024-04-22T22:35:15.608Z,5.43
2024-04-22T22:37:42.840Z,5.60
2024-04-22T22:40:11.068Z,4.97
2024-04-22T22:42:38.377Z,4.40
2024-04-22T22:45:06.046Z,5.13
2024-04-22T22:47:33.249Z,6.73
2024-04-22T22:50:00.446Z,5.47
2024-04-22T22:52:27.642Z,4.77
2024-04-22T22:54:54.712Z,4.37
2024-04-22T22:57:21.852Z,4.60
2024-04-22T22:59:49.020Z,4.50
2024-04-22T23:02:16.144Z,5.20
2024-04-22T23:04:43.287Z,4.80
2024-04-22T23:07:10.458Z,5.37
2024-04-22T23:09:37.568Z,5.40
2024-04-22T23:12:04.876Z,5.00
2024-04-22T23:14:31.967Z,4.97
2024-04-22T23:16:59.160Z,5.67
2024-04-22T23:19:26.347Z,6.00
2024-04-22T23:21:53.407Z,6.40
2024-04-22T23:24:20.451Z,5.93
2024-04-22T23:26:51.499Z,5.40
2024-04-22T23:29:18.986Z,5.10
2024-04-22T23:31:46.190Z,5.80
2024-04-22T23:34:13.315Z,5.57
2024-04-22T23:36:50.101Z,5.80
2024-04-22T23:39:17.966Z,5.63
2024-04-22T23:41:45.185Z,5.37
2024-04-22T23:44:12.760Z,5.00
2024-04-22T23:46:53.006Z,5.80
2024-04-22T23:49:20.534Z,5.43
2024-04-22T23:51:48.374Z,5.20
2024-04-22T23:54:15.716Z,5.53
2024-04-22T23:56:42.796Z,6.23
2024-04-22T23:59:09.916Z,7.13
